Time;durP1;ratioP1;P1;durP2;ratioP2;P2;SDS_P1;SDS_P2;PMS_P1;PMS_P2;Temp;Humidity;BMP_temperature;BMP_pressure;BME280_temperature;BME280_humidity;BME280_pressure;Samples;Min_cycle;Max_cycle;Signal;HPM_P1;HPM_P2
2023/01/06 00:00:08;;;;;;;19.90;7.43;;;10.00;99.90;;;;;;5055851;28;20072;-64
2023/01/06 00:02:34;;;;;;;19.85;7.10;;;10.00;99.90;;;;;;5074028;28;20040;-64
2023/01/06 00:05:00;;;;;;;24.00;7.18;;;9.90;99.90;;;;;;5072578;28;20044;-64
2023/01/06 00:07:26;;;;;;;26.23;7.35;;;10.00;99.90;;;;;;5055671;28;20505;-64
2023/01/06 00:09:51;;;;;;;24.80;7.82;;;10.00;99.90;;;;;;5055540;28;20456;-64
2023/01/06 00:12:17;;;;;;;33.88;6.97;;;10.00;99.90;;;;;;5072602;28;20075;-65
2023/01/06 00:14:43;;;;;;;26.83;8.50;;;10.00;99.90;;;;;;5055598;28;20047;-64
2023/01/06 00:17:09;;;;;;;25.10;7.43;;;10.00;99.90;;;;;;5055230;28;20123;-64
2023/01/06 00:19:35;;;;;;;18.20;7.03;;;10.00;99.90;;;;;;5054653;28;20237;-64
2023/01/06 00:22:00;;;;;;;24.77;6.95;;;10.10;99.90;;;;;;5055551;28;20161;-64
2023/01/06 00:24:26;;;;;;;19.80;6.50;;;10.10;99.90;;;;;;5073106;28;20044;-64
2023/01/06 00:26:52;;;;;;;21.60;6.20;;;10.10;99.90;;;;;;5054116;28;20049;-64
2023/01/06 00:29:17;;;;;;;22.45;6.13;;;10.10;99.90;;;;;;5055125;28;20044;-64
2023/01/06 00:31:43;;;;;;;20.92;6.57;;;10.10;99.90;;;;;;5055334;28;20052;-64
2023/01/06 00:34:12;;;;;;;18.60;6.20;;;10.10;99.90;;;;;;5054133;28;20044;-64
2023/01/06 00:36:37;;;;;;;17.58;5.88;;;10.10;99.90;;;;;;5073124;28;20481;-64
2023/01/06 00:39:03;;;;;;;16.48;5.70;;;10.20;99.90;;;;;;5055297;28;20050;-64
2023/01/06 00:44:13;;;;;;;16.60;4.85;;;10.20;99.90;;;;;;5054731;28;20131;-64
2023/01/06 00:46:39;;;;;;;21.73;5.15;;;10.20;99.90;;;;;;5054304;28;20190;-64
2023/01/06 00:49:05;;;;;;;17.08;5.65;;;10.20;99.90;;;;;;5072488;28;20040;-64
2023/01/06 00:51:31;;;;;;;29.33;5.28;;;10.20;99.90;;;;;;5054902;28;20068;-64
2023/01/06 00:53:59;;;;;;;15.55;4.50;;;10.20;99.90;;;;;;5037192;28;20475;-64
2023/01/06 00:56:24;;;;;;;12.35;4.65;;;10.20;99.90;;;;;;5054411;28;20047;-65
2023/01/06 00:58:50;;;;;;;19.45;5.35;;;10.20;99.90;;;;;;5054726;28;20040;-64
2023/01/06 01:01:16;;;;;;;16.48;4.65;;;10.20;99.90;;;;;;5071473;28;20040;-64
2023/01/06 01:03:42;;;;;;;12.18;3.88;;;10.20;99.90;;;;;;5072434;28;20040;-64
2023/01/06 01:06:08;;;;;;;17.02;4.57;;;10.10;99.90;;;;;;5054475;28;20055;-64
2023/01/06 01:08:34;;;;;;;21.23;4.90;;;10.20;99.90;;;;;;5053042;28;20071;-64
2023/01/06 01:11:08;;;;;;;12.05;4.45;;;10.10;99.90;;;;;;5054609;28;20079;-64
2023/01/06 01:13:34;;;;;;;16.73;4.55;;;10.20;99.90;;;;;;5072764;28;20036;-64
2023/01/06 01:16:07;;;;;;;15.55;3.97;;;10.10;99.90;;;;;;5053429;28;20052;-64
2023/01/06 01:18:34;;;;;;;9.48;3.47;;;10.10;99.90;;;;;;5054445;28;20040;-64
2023/01/06 01:21:00;;;;;;;20.52;5.07;;;10.20;99.90;;;;;;5072172;28;20111;-64
2023/01/06 01:23:26;;;;;;;16.83;4.07;;;10.10;99.90;;;;;;5053428;28;20044;-64
2023/01/06 01:25:56;;;;;;;16.27;4.28;;;10.10;99.90;;;;;;5053767;28;20379;-65
2023/01/06 01:28:21;;;;;;;19.42;4.53;;;10.10;99.90;;;;;;5054080;28;20040;-64
2023/01/06 01:30:47;;;;;;;14.63;4.68;;;10.10;99.90;;;;;;5053342;28;20036;-66
2023/01/06 01:33:13;;;;;;;12.68;4.03;;;10.10;99.90;;;;;;5053790;28;20116;-64
2023/01/06 01:35:38;;;;;;;12.88;4.00;;;10.10;99.90;;;;;;5054315;28;20051;-64
2023/01/06 01:38:04;;;;;;;10.07;3.88;;;10.10;99.90;;;;;;5052955;28;20296;-64
2023/01/06 01:40:30;;;;;;;13.93;3.60;;;10.10;99.90;;;;;;5054153;28;20044;-64
2023/01/06 01:42:55;;;;;;;14.98;3.67;;;10.10;99.90;;;;;;5053030;28;20067;-64
2023/01/06 01:45:26;;;;;;;16.45;4.10;;;10.00;99.90;;;;;;5071815;28;20037;-64
2023/01/06 01:47:59;;;;;;;13.20;3.72;;;10.00;99.90;;;;;;5072044;28;20045;-64
2023/01/06 01:50:38;;;;;;;12.68;3.72;;;10.00;99.90;;;;;;5071027;28;20082;-64
2023/01/06 01:53:17;;;;;;;12.88;3.10;;;10.00;99.90;;;;;;5053994;28;20482;-64
2023/01/06 01:55:42;;;;;;;13.07;3.65;;;10.00;99.90;;;;;;5053846;28;20048;-64
2023/01/06 01:58:13;;;;;;;14.60;4.35;;;10.00;99.90;;;;;;5053194;28;20097;-64
2023/01/06 02:00:42;;;;;;;13.77;3.05;;;10.00;99.90;;;;;;5054465;28;20496;-64
2023/01/06 02:03:09;;;;;;;9.60;3.13;;;10.00;99.90;;;;;;5037457;28;20127;-64
2023/01/06 02:05:39;;;;;;;14.52;3.80;;;10.00;99.90;;;;;;5053387;28;20118;-64
2023/01/06 02:08:22;;;;;;;15.77;3.60;;;9.90;99.90;;;;;;5053276;28;20044;-64
2023/01/06 02:10:47;;;;;;;13.02;3.20;;;9.90;99.90;;;;;;5071694;28;20040;-64
2023/01/06 02:13:13;;;;;;;16.85;4.00;;;9.90;99.90;;;;;;5052903;28;20044;-64
2023/01/06 02:15:41;;;;;;;19.75;4.53;;;9.90;99.90;;;;;;5053790;28;20040;-64
2023/01/06 02:18:25;;;;;;;10.75;3.22;;;9.90;99.90;;;;;;5053020;28;20045;-64
2023/01/06 02:21:03;;;;;;;12.20;3.90;;;9.90;99.90;;;;;;5075653;28;20048;-64
2023/01/06 02:23:43;;;;;;;12.10;3.63;;;9.90;99.90;;;;;;5057727;28;20045;-64
2023/01/06 02:26:27;;;;;;;13.88;3.67;;;9.90;99.90;;;;;;5056485;28;20052;-65
2023/01/06 02:29:37;;;;;;;9.55;3.28;;;9.90;99.90;;;;;;5057375;28;20056;-64
2023/01/06 02:32:18;;;;;;;10.55;3.25;;;9.90;99.90;;;;;;5003177;28;20397;-64
2023/01/06 02:35:02;;;;;;;11.43;3.38;;;9.90;99.90;;;;;;5075475;28;20040;-64
2023/01/06 02:37:37;;;;;;;11.95;3.47;;;9.90;99.90;;;;;;5057241;28;20115;-64
2023/01/06 02:40:21;;;;;;;10.60;3.13;;;9.90;99.90;;;;;;5074500;28;20044;-64
2023/01/06 02:43:14;;;;;;;8.40;3.35;;;9.90;99.90;;;;;;5057249;28;20107;-65
2023/01/06 02:45:46;;;;;;;12.15;3.03;;;9.90;99.90;;;;;;5040609;28;20044;-64
2023/01/06 02:48:31;;;;;;;10.45;3.72;;;9.90;99.90;;;;;;5039980;28;20041;-64
2023/01/06 02:51:06;;;;;;;8.93;2.65;;;9.90;99.90;;;;;;5074976;28;20393;-64
2023/01/06 02:53:56;;;;;;;9.10;3.75;;;9.90;99.90;;;;;;5074538;28;20044;-64
2023/01/06 02:56:25;;;;;;;10.07;3.25;;;9.90;99.90;;;;;;5057121;28;20048;-64
2023/01/06 02:59:03;;;;;;;9.23;3.55;;;9.90;99.90;;;;;;5056963;28;20044;-64
2023/01/06 03:01:37;;;;;;;9.85;2.88;;;9.90;99.90;;;;;;5056472;28;20048;-64
2023/01/06 03:04:08;;;;;;;11.65;3.25;;;9.90;99.90;;;;;;5056865;28;20053;-64
2023/01/06 03:06:36;;;;;;;8.32;2.80;;;9.90;99.90;;;;;;5057067;28;20045;-64
2023/01/06 03:09:04;;;;;;;6.63;2.30;;;9.90;99.90;;;;;;5055825;28;20349;-64
2023/01/06 03:11:32;;;;;;;7.43;2.95;;;9.90;99.90;;;;;;5056738;28;20090;-64
2023/01/06 03:14:09;;;;;;;10.73;2.95;;;10.00;99.90;;;;;;5040020;28;20043;-64
2023/01/06 03:16:35;;;;;;;10.43;3.05;;;10.00;99.90;;;;;;5056239;28;20465;-64
2023/01/06 03:19:02;;;;;;;11.60;3.05;;;9.90;99.90;;;;;;5056600;28;20079;-65
2023/01/06 03:21:33;;;;;;;12.35;3.83;;;9.90;99.90;;;;;;5073796;28;20049;-65
2023/01/06 03:23:59;;;;;;;12.60;4.20;;;10.00;99.90;;;;;;5056577;28;20093;-64
2023/01/06 03:26:25;;;;;;;9.13;3.97;;;10.00;99.90;;;;;;5056142;28;20056;-64
2023/01/06 03:28:50;;;;;;;10.27;4.68;;;10.00;99.90;;;;;;5055354;28;20048;-64
2023/01/06 03:31:57;;;;;;;8.00;4.10;;;10.00;99.90;;;;;;5055342;28;20533;-64
2023/01/06 03:35:02;;;;;;;10.55;4.53;;;10.00;99.90;;;;;;5028669;28;20048;-64
2023/01/06 03:37:36;;;;;;;9.32;5.03;;;10.00;99.90;;;;;;5054600;28;20064;-64
2023/01/06 03:40:23;;;;;;;7.93;5.28;;;10.00;99.90;;;;;;5056181;28;20151;-64
2023/01/06 03:43:23;;;;;;;9.75;5.53;;;10.10;99.90;;;;;;5072933;28;20036;-64
2023/01/06 03:46:01;;;;;;;8.98;5.80;;;10.10;99.90;;;;;;5039253;28;20049;-64
2023/01/06 03:48:48;;;;;;;12.88;6.80;;;10.10;99.90;;;;;;5055844;28;20094;-64
2023/01/06 03:51:13;;;;;;;11.35;6.68;;;10.10;99.90;;;;;;5072977;28;20532;-64
2023/01/06 03:54:07;;;;;;;11.60;6.43;;;10.10;99.90;;;;;;5056096;28;20112;-64
2023/01/06 03:56:59;;;;;;;10.95;7.38;;;10.20;99.90;;;;;;5073206;28;20375;-63
2023/01/06 03:59:29;;;;;;;11.70;7.68;;;10.20;99.90;;;;;;5055832;28;20123;-63
2023/01/06 04:01:56;;;;;;;12.27;9.00;;;10.20;99.90;;;;;;5039142;28;20055;-63
2023/01/06 04:04:22;;;;;;;11.98;6.75;;;10.20;99.90;;;;;;5072677;28;20508;-63
2023/01/06 04:06:48;;;;;;;12.40;7.80;;;10.20;99.90;;;;;;5073291;28;20040;-63
2023/01/06 04:09:13;;;;;;;11.00;6.05;;;10.20;99.90;;;;;;5055391;28;20048;-63
2023/01/06 04:14:23;;;;;;;9.38;6.35;;;10.30;99.90;;;;;;5055593;28;20114;-63
2023/01/06 04:16:48;;;;;;;10.70;5.72;;;10.20;99.90;;;;;;5073474;28;20036;-63
2023/01/06 04:19:14;;;;;;;15.30;6.55;;;10.20;99.90;;;;;;5054510;28;20549;-63
2023/01/06 04:21:40;;;;;;;9.98;6.22;;;10.20;99.90;;;;;;5055653;28;20044;-63
2023/01/06 04:24:06;;;;;;;8.68;5.72;;;10.30;99.90;;;;;;5055170;28;20116;-63
2023/01/06 04:26:32;;;;;;;9.50;5.70;;;10.20;99.90;;;;;;5054486;28;20107;-63
2023/01/06 04:28:59;;;;;;;10.52;5.03;;;10.20;99.90;;;;;;5055224;28;20036;-63
2023/01/06 04:31:25;;;;;;;8.82;5.25;;;10.20;99.90;;;;;;5073143;28;20385;-63
2023/01/06 04:33:50;;;;;;;10.70;4.90;;;10.20;99.90;;;;;;5037818;28;20041;-63
2023/01/06 04:36:16;;;;;;;8.30;4.75;;;10.20;99.90;;;;;;5054996;28;20044;-63
2023/01/06 04:38:42;;;;;;;9.00;5.32;;;10.20;99.90;;;;;;5072249;28;20039;-63
2023/01/06 04:41:07;;;;;;;8.20;4.68;;;10.20;99.90;;;;;;5054765;28;20076;-63
2023/01/06 04:43:33;;;;;;;7.22;3.80;;;10.30;99.90;;;;;;5055146;28;20082;-63
2023/01/06 04:45:59;;;;;;;9.13;3.70;;;10.30;99.90;;;;;;5071999;28;20424;-63
2023/01/06 04:48:25;;;;;;;9.15;4.07;;;10.30;99.90;;;;;;5072834;28;20033;-63
2023/01/06 04:51:00;;;;;;;8.13;3.65;;;10.30;99.90;;;;;;5054932;28;20044;-64
2023/01/06 04:53:26;;;;;;;7.03;3.65;;;10.30;99.90;;;;;;5071790;28;20523;-63
2023/01/06 04:55:51;;;;;;;9.63;4.00;;;10.30;99.90;;;;;;5054884;28;20048;-63
2023/01/06 04:58:17;;;;;;;7.32;3.90;;;10.30;99.90;;;;;;5072328;28;20482;-63
2023/01/06 05:00:43;;;;;;;6.68;3.20;;;10.30;99.90;;;;;;5071838;28;20079;-63
2023/01/06 05:03:08;;;;;;;5.90;2.85;;;10.30;99.90;;;;;;5054694;28;20044;-63
2023/01/06 05:05:34;;;;;;;6.85;3.17;;;10.30;99.90;;;;;;5072835;28;20047;-63
2023/01/06 05:07:59;;;;;;;10.02;3.65;;;10.30;99.90;;;;;;5071533;28;20366;-63
2023/01/06 05:10:25;;;;;;;7.00;2.85;;;10.30;99.90;;;;;;5054157;28;20517;-63
2023/01/06 05:12:51;;;;;;;6.72;3.05;;;10.30;99.90;;;;;;5054284;28;20123;-63
2023/01/06 05:15:16;;;;;;;9.82;3.38;;;10.30;99.90;;;;;;5071564;28;20036;-63
2023/01/06 05:17:42;;;;;;;4.65;2.50;;;10.30;99.90;;;;;;5054403;28;20040;-63
2023/01/06 05:20:08;;;;;;;6.05;2.95;;;10.30;99.90;;;;;;5054381;28;20040;-63
2023/01/06 05:22:34;;;;;;;8.82;2.80;;;10.30;99.90;;;;;;5053657;28;20493;-63
2023/01/06 05:24:59;;;;;;;10.18;3.22;;;10.30;99.90;;;;;;5071969;28;20079;-63
2023/01/06 05:27:26;;;;;;;9.60;3.38;;;10.30;99.90;;;;;;5053945;28;20048;-63
2023/01/06 05:29:51;;;;;;;7.75;4.00;;;10.30;99.90;;;;;;5053369;28;20469;-63
2023/01/06 05:32:17;;;;;;;7.28;3.17;;;10.20;99.90;;;;;;5072112;28;20047;-63
2023/01/06 05:34:42;;;;;;;8.07;4.05;;;10.20;99.90;;;;;;5054183;28;20040;-63
2023/01/06 05:37:08;;;;;;;7.90;3.88;;;10.10;99.90;;;;;;5053413;28;20040;-63
2023/01/06 05:39:34;;;;;;;10.20;3.83;;;10.10;99.90;;;;;;5072127;28;20405;-63
2023/01/06 05:41:59;;;;;;;7.68;4.53;;;10.00;99.90;;;;;;5053210;28;20040;-63
2023/01/06 05:44:25;;;;;;;7.60;4.55;;;10.00;99.90;;;;;;5053832;28;20103;-63
2023/01/06 05:46:50;;;;;;;6.57;4.00;;;9.90;99.90;;;;;;5071916;28;20036;-62
2023/01/06 05:49:16;;;;;;;7.65;4.38;;;9.90;99.90;;;;;;5053387;28;20485;-63
2023/01/06 05:51:42;;;;;;;8.23;4.32;;;9.90;99.90;;;;;;5053883;28;20036;-63
2023/01/06 05:54:08;;;;;;;9.80;4.70;;;9.90;99.90;;;;;;5058362;28;20040;-62
2023/01/06 05:56:34;;;;;;;8.77;4.82;;;9.80;99.90;;;;;;5059978;28;20055;-62
2023/01/06 05:59:01;;;;;;;7.53;4.28;;;9.80;99.90;;;;;;5078494;28;20045;-62
2023/01/06 06:01:30;;;;;;;7.72;4.15;;;9.90;99.90;;;;;;5060307;28;20048;-62
2023/01/06 06:03:56;;;;;;;8.55;4.80;;;9.80;99.90;;;;;;5043337;28;20076;-62
2023/01/06 06:06:24;;;;;;;11.10;5.20;;;9.80;99.90;;;;;;5060147;28;20173;-62
2023/01/06 06:08:50;;;;;;;9.13;5.07;;;9.80;99.90;;;;;;5078142;28;20036;-63
2023/01/06 06:11:18;;;;;;;7.68;4.20;;;9.80;99.90;;;;;;5077552;28;20036;-62
2023/01/06 06:13:47;;;;;;;8.38;5.53;;;9.80;99.90;;;;;;5060377;28;20032;-62
2023/01/06 06:16:15;;;;;;;10.55;5.40;;;9.80;99.90;;;;;;5060202;28;20170;-62
2023/01/06 06:18:41;;;;;;;8.88;5.85;;;9.80;99.90;;;;;;5059825;28;20485;-63
2023/01/06 06:21:09;;;;;;;6.97;4.40;;;9.80;99.90;;;;;;5060174;28;20045;-65
2023/01/06 06:23:35;;;;;;;10.63;5.30;;;9.80;99.90;;;;;;5078259;28;20493;-65
2023/01/06 06:26:00;;;;;;;9.57;4.95;;;9.80;99.90;;;;;;5077076;28;20124;-65
2023/01/06 06:28:28;;;;;;;9.05;5.32;;;9.80;99.90;;;;;;5060380;28;20132;-62
2023/01/06 06:30:54;;;;;;;7.20;4.63;;;9.80;99.90;;;;;;5078422;28;20040;-62
2023/01/06 06:33:20;;;;;;;8.75;5.32;;;9.70;99.90;;;;;;5077280;28;20051;-62
2023/01/06 06:35:56;;;;;;;7.78;4.90;;;9.70;99.90;;;;;;5060427;28;20075;-62
2023/01/06 06:38:21;;;;;;;9.13;5.97;;;9.70;99.90;;;;;;5059217;28;20044;-62
2023/01/06 06:40:47;;;;;;;12.40;5.40;;;9.70;99.90;;;;;;5060098;28;20050;-62
2023/01/06 06:43:12;;;;;;;9.73;4.82;;;9.80;99.90;;;;;;5060022;28;20051;-62
2023/01/06 06:45:38;;;;;;;9.63;5.53;;;9.70;99.90;;;;;;5059733;28;20147;-62
2023/01/06 06:48:04;;;;;;;10.35;5.85;;;9.70;99.90;;;;;;5059702;28;20463;-62
2023/01/06 06:50:30;;;;;;;9.55;4.97;;;9.70;99.90;;;;;;5060333;28;20037;-62
2023/01/06 06:52:55;;;;;;;8.38;5.25;;;9.70;99.90;;;;;;5076909;28;20124;-63
2023/01/06 06:55:21;;;;;;;10.55;4.93;;;9.70;99.90;;;;;;5078055;28;20040;-62
2023/01/06 06:57:47;;;;;;;7.75;4.47;;;9.70;99.90;;;;;;5059876;28;20493;-62
2023/01/06 07:00:13;;;;;;;8.07;4.15;;;9.70;99.90;;;;;;5059218;28;20036;-62
2023/01/06 07:02:38;;;;;;;6.85;3.63;;;9.80;99.90;;;;;;5078260;28;20043;-62
2023/01/06 07:05:04;;;;;;;5.93;3.00;;;9.80;99.90;;;;;;5075221;28;20032;-63
2023/01/06 07:07:30;;;;;;;7.50;3.65;;;9.80;99.90;;;;;;5056183;28;20047;-63
2023/01/06 07:09:56;;;;;;;7.72;3.38;;;9.80;99.90;;;;;;5056745;28;20045;-63
2023/01/06 07:12:22;;;;;;;6.72;2.67;;;9.90;99.90;;;;;;5056478;28;20044;-63
2023/01/06 07:14:47;;;;;;;12.18;3.15;;;9.90;99.90;;;;;;5039306;28;20119;-62
2023/01/06 07:17:13;;;;;;;8.90;3.13;;;9.90;99.90;;;;;;5072190;28;20055;-62
2023/01/06 07:19:39;;;;;;;13.75;3.30;;;9.90;99.90;;;;;;5040355;28;20075;-62
2023/01/06 07:22:04;;;;;;;7.57;2.30;;;9.70;99.90;;;;;;5073198;28;20119;-63
2023/01/06 07:24:30;;;;;;;9.75;2.05;;;9.70;99.90;;;;;;5073445;28;20375;-63
2023/01/06 07:26:55;;;;;;;6.80;1.40;;;9.50;99.90;;;;;;5073600;28;20045;-63
2023/01/06 07:29:21;;;;;;;7.50;1.60;;;9.30;99.90;;;;;;5068179;28;20041;-63
2023/01/06 07:31:47;;;;;;;8.10;2.05;;;9.20;99.90;;;;;;5042527;28;20055;-62
2023/01/06 07:34:12;;;;;;;4.47;1.30;;;9.10;99.90;;;;;;5070741;28;20059;-62
2023/01/06 07:36:38;;;;;;;7.78;1.70;;;9.00;99.90;;;;;;5057337;28;20033;-62
2023/01/06 07:39:04;;;;;;;7.03;1.30;;;8.90;99.90;;;;;;5053704;28;20040;-62
2023/01/06 07:41:31;;;;;;;6.80;1.70;;;8.70;99.90;;;;;;5053252;28;20086;-63
2023/01/06 07:43:56;;;;;;;7.72;1.55;;;8.60;99.90;;;;;;5071300;28;20063;-63
2023/01/06 07:46:22;;;;;;;7.05;1.73;;;8.50;99.90;;;;;;5064743;28;20044;-63
2023/01/06 07:48:48;;;;;;;5.00;1.17;;;8.40;99.90;;;;;;5054755;28;20072;-62
2023/01/06 07:51:13;;;;;;;7.03;1.33;;;8.30;99.90;;;;;;5071053;28;20123;-62
2023/01/06 07:53:39;;;;;;;8.55;1.85;;;8.30;99.90;;;;;;5071125;28;20429;-67
2023/01/06 07:56:06;;;;;;;12.10;2.47;;;8.20;99.90;;;;;;5050213;28;20046;-67
2023/01/06 07:58:32;;;;;;;13.70;1.92;;;8.10;99.90;;;;;;5037165;28;20079;-63
2023/01/06 08:01:03;;;;;;;10.30;1.88;;;8.10;99.90;;;;;;5071686;28;20080;-67
2023/01/06 08:03:28;;;;;;;8.40;2.70;;;8.00;99.90;;;;;;5033102;28;20057;-67
2023/01/06 08:05:54;;;;;;;12.07;2.60;;;8.00;99.90;;;;;;5049789;28;20420;-67
2023/01/06 08:08:20;;;;;;;10.40;3.05;;;7.90;99.90;;;;;;5052086;28;20456;-67
2023/01/06 08:10:46;;;;;;;8.75;2.58;;;7.90;99.90;;;;;;5068001;28;20045;-67
2023/01/06 08:13:12;;;;;;;11.55;3.72;;;7.80;99.90;;;;;;5053222;28;20066;-67
2023/01/06 08:15:38;;;;;;;13.48;3.30;;;7.80;99.90;;;;;;5072239;28;20071;-67
2023/01/06 08:18:03;;;;;;;16.52;3.42;;;7.70;99.90;;;;;;5067733;28;20072;-67
2023/01/06 08:20:29;;;;;;;9.43;2.90;;;7.70;99.90;;;;;;5071215;28;20087;-67
2023/01/06 08:22:56;;;;;;;8.13;2.28;;;7.70;99.90;;;;;;5053067;28;20489;-66
2023/01/06 08:25:22;;;;;;;10.43;2.80;;;7.60;99.90;;;;;;5058582;28;20056;-67
2023/01/06 08:27:48;;;;;;;11.80;3.47;;;7.60;99.90;;;;;;5068419;28;20512;-67
2023/01/06 08:30:15;;;;;;;12.82;4.13;;;7.60;99.90;;;;;;5065787;28;20080;-67
2023/01/06 08:32:41;;;;;;;14.50;3.40;;;7.60;99.90;;;;;;5060898;28;20043;-67
2023/01/06 08:35:08;;;;;;;9.18;2.78;;;7.60;99.90;;;;;;5058065;28;20044;-67
2023/01/06 08:37:34;;;;;;;7.47;2.40;;;7.60;99.90;;;;;;5057126;28;20041;-66
2023/01/06 08:39:59;;;;;;;15.15;3.08;;;7.60;99.90;;;;;;5069286;28;20041;-66
2023/01/06 08:42:25;;;;;;;19.00;3.13;;;7.50;99.90;;;;;;5051022;28;20045;-66
2023/01/06 08:44:51;;;;;;;10.68;2.65;;;7.50;99.90;;;;;;5069445;28;20056;-67
2023/01/06 08:47:16;;;;;;;12.30;2.92;;;7.50;99.90;;;;;;5062182;28;20498;-67
2023/01/06 08:49:42;;;;;;;12.43;3.28;;;7.50;99.90;;;;;;5069755;28;20044;-66
2023/01/06 08:52:08;;;;;;;14.05;3.13;;;7.50;99.90;;;;;;5068872;28;20121;-66
2023/01/06 08:54:33;;;;;;;15.90;3.17;;;7.50;99.90;;;;;;5066811;28;20101;-66
2023/01/06 08:56:59;;;;;;;12.32;2.97;;;7.50;99.90;;;;;;5051794;28;20755;-66
2023/01/06 08:59:25;;;;;;;10.80;2.63;;;7.50;99.90;;;;;;5064257;28;20045;-66
2023/01/06 09:01:50;;;;;;;13.20;3.38;;;7.50;99.90;;;;;;5069366;28;20484;-66
2023/01/06 09:04:16;;;;;;;14.80;3.60;;;7.50;99.90;;;;;;5052138;28;20481;-66
2023/01/06 09:06:43;;;;;;;11.75;2.63;;;7.50;99.90;;;;;;5067202;28;20139;-66
2023/01/06 09:09:13;;;;;;;16.73;3.17;;;7.60;99.90;;;;;;5073603;28;20127;-66
2023/01/06 09:11:43;;;;;;;9.35;2.38;;;7.60;99.90;;;;;;5068262;28;20040;-66
2023/01/06 09:14:10;;;;;;;9.85;2.58;;;7.60;99.90;;;;;;5068621;28;20093;-66
2023/01/06 09:16:35;;;;;;;10.02;3.10;;;7.60;99.90;;;;;;5069231;28;20047;-67
2023/01/06 09:19:01;;;;;;;13.65;3.38;;;7.70;99.90;;;;;;5055320;28;20040;-66
2023/01/06 09:21:27;;;;;;;10.90;2.38;;;7.70;99.90;;;;;;5056836;28;20040;-66
2023/01/06 09:23:53;;;;;;;11.05;2.80;;;7.70;99.90;;;;;;5067328;28;20123;-66
2023/01/06 09:26:20;;;;;;;9.50;2.42;;;7.70;99.90;;;;;;5051418;28;20088;-66
2023/01/06 09:28:46;;;;;;;15.43;2.67;;;7.80;99.90;;;;;;5060796;28;20044;-66
2023/01/06 09:31:12;;;;;;;16.58;3.10;;;7.80;99.90;;;;;;5066044;28;20720;-66
2023/01/06 09:33:38;;;;;;;17.85;3.20;;;7.80;99.90;;;;;;5051268;28;20043;-66
2023/01/06 09:36:04;;;;;;;11.20;2.90;;;7.90;99.90;;;;;;5059067;28;20041;-66
2023/01/06 09:38:30;;;;;;;8.23;2.53;;;7.90;99.90;;;;;;5055490;28;20044;-66
2023/01/06 09:41:29;;;;;;;14.95;2.70;;;8.00;99.90;;;;;;5067095;28;20044;-65
2023/01/06 09:43:58;;;;;;;11.25;2.85;;;8.10;99.90;;;;;;5053499;28;20056;-66
2023/01/06 09:46:32;;;;;;;14.32;3.05;;;8.00;99.90;;;;;;5065468;28;20092;-66
2023/01/06 09:49:01;;;;;;;8.07;2.33;;;8.10;99.90;;;;;;5068156;28;20032;-66
2023/01/06 09:51:30;;;;;;;9.95;2.45;;;8.10;99.90;;;;;;5067970;28;20752;-67
2023/01/06 09:54:03;;;;;;;15.02;3.03;;;8.10;99.90;;;;;;5061963;28;20036;-67
2023/01/06 09:56:30;;;;;;;21.17;3.17;;;8.10;99.90;;;;;;5053975;28;20048;-67
2023/01/06 09:59:15;;;;;;;11.57;3.33;;;8.20;99.90;;;;;;5067567;28;20493;-67
2023/01/06 10:01:47;;;;;;;13.35;3.30;;;8.30;99.90;;;;;;5065330;28;20044;-67
2023/01/06 10:04:25;;;;;;;10.90;3.40;;;8.30;99.90;;;;;;5053783;28;20497;-67
2023/01/06 10:07:00;;;;;;;13.95;3.30;;;8.30;99.90;;;;;;5051016;28;20162;-67
2023/01/06 10:09:37;;;;;;;8.88;2.33;;;8.40;99.90;;;;;;5051541;28;20473;-66
2023/01/06 10:12:25;;;;;;;17.17;3.03;;;8.40;99.90;;;;;;5067583;28;20041;-67
2023/01/06 10:15:16;;;;;;;9.25;2.83;;;8.40;99.90;;;;;;5040521;28;20049;-67
2023/01/06 10:18:01;;;;;;;11.40;3.95;;;8.40;99.90;;;;;;5057641;28;20047;-68
2023/01/06 10:20:26;;;;;;;11.40;3.13;;;8.50;99.90;;;;;;5069188;28;20094;-67
2023/01/06 10:23:06;;;;;;;11.35;3.30;;;8.50;99.90;;;;;;5062167;28;20045;-67
2023/01/06 10:25:38;;;;;;;10.43;2.63;;;8.60;99.90;;;;;;5044754;28;20051;-67
2023/01/06 10:28:28;;;;;;;9.10;2.78;;;8.70;99.90;;;;;;5067408;28;20058;-67
2023/01/06 10:31:04;;;;;;;9.93;2.38;;;8.70;99.90;;;;;;5065939;28;20039;-67
2023/01/06 10:33:34;;;;;;;9.30;2.45;;;8.70;99.90;;;;;;5042239;28;20040;-67
2023/01/06 10:36:00;;;;;;;9.18;2.63;;;8.70;99.90;;;;;;5068498;28;20047;-67
2023/01/06 10:38:49;;;;;;;10.15;2.83;;;8.70;99.90;;;;;;5051857;28;20442;-67
2023/01/06 10:41:18;;;;;;;10.15;3.47;;;8.80;99.90;;;;;;5071445;28;20047;-67
2023/01/06 10:43:43;;;;;;;12.88;3.60;;;8.80;99.90;;;;;;5040141;28;20497;-67
2023/01/06 10:46:09;;;;;;;9.30;3.45;;;8.90;99.90;;;;;;5068817;28;20068;-67
2023/01/06 10:48:35;;;;;;;10.82;2.92;;;8.90;99.90;;;;;;5071478;28;20048;-66
2023/01/06 10:51:41;;;;;;;7.60;2.63;;;9.00;99.90;;;;;;5059117;28;20143;-66
2023/01/06 10:54:17;;;;;;;9.80;2.92;;;9.00;99.90;;;;;;5063553;28;20049;-66
2023/01/06 10:56:50;;;;;;;14.93;3.25;;;9.10;99.90;;;;;;5072423;28;20090;-68
2023/01/06 10:59:15;;;;;;;9.48;2.53;;;9.10;99.90;;;;;;5056523;28;20036;-66
2023/01/06 11:01:53;;;;;;;8.30;2.45;;;9.20;99.90;;;;;;5075141;28;20037;-66
2023/01/06 11:04:20;;;;;;;8.48;2.85;;;9.20;99.90;;;;;;5056744;28;20049;-66
2023/01/06 11:06:57;;;;;;;8.93;2.83;;;9.30;99.90;;;;;;5055880;28;20045;-66
2023/01/06 11:09:37;;;;;;;8.57;2.10;;;9.30;99.90;;;;;;5062519;28;20036;-67
2023/01/06 11:12:11;;;;;;;22.80;3.13;;;9.30;99.90;;;;;;5074991;28;20420;-67
2023/01/06 11:14:38;;;;;;;14.45;3.53;;;9.40;99.90;;;;;;5074118;28;20041;-67
2023/01/06 11:17:14;;;;;;;13.75;3.20;;;9.40;99.90;;;;;;5073411;28;20048;-67
2023/01/06 11:19:43;;;;;;;8.65;2.50;;;9.40;99.90;;;;;;5074413;28;20427;-67
2023/01/06 11:22:36;;;;;;;12.45;2.75;;;9.40;99.90;;;;;;5074711;28;20044;-67
2023/01/06 11:25:20;;;;;;;14.77;3.78;;;9.40;99.90;;;;;;5073629;28;20441;-67
2023/01/06 11:28:07;;;;;;;11.47;2.53;;;9.40;99.90;;;;;;5071778;28;20052;-68
2023/01/06 11:30:50;;;;;;;8.88;2.10;;;9.40;99.90;;;;;;5074724;28;20040;-67
2023/01/06 11:33:20;;;;;;;11.07;2.65;;;9.50;99.90;;;;;;5056042;28;20490;-66
2023/01/06 11:35:47;;;;;;;9.98;2.60;;;9.50;99.90;;;;;;5062133;28;20028;-66
2023/01/06 11:38:15;;;;;;;11.88;2.75;;;9.50;99.90;;;;;;5073945;28;20127;-66
2023/01/06 11:40:42;;;;;;;14.57;2.40;;;9.50;99.90;;;;;;5056090;28;20047;-67
2023/01/06 11:43:32;;;;;;;10.43;2.83;;;9.60;99.90;;;;;;5039891;28;20048;-66
2023/01/06 11:46:01;;;;;;;12.85;2.80;;;9.60;99.90;;;;;;5074268;28;20127;-66
2023/01/06 11:48:32;;;;;;;11.43;3.13;;;9.50;99.90;;;;;;5055598;28;20431;-66
2023/01/06 11:51:00;;;;;;;11.40;3.15;;;9.60;99.90;;;;;;5055282;28;20060;-66
2023/01/06 11:53:28;;;;;;;10.85;2.60;;;9.60;99.90;;;;;;5073829;28;20489;-68
2023/01/06 11:56:13;;;;;;;8.10;2.55;;;9.60;99.90;;;;;;5054905;28;20043;-67
2023/01/06 11:59:02;;;;;;;11.35;4.10;;;9.60;99.90;;;;;;5071324;28;20041;-66
2023/01/06 12:01:28;;;;;;;10.57;3.20;;;9.60;99.90;;;;;;5072949;28;20049;-68
2023/01/06 12:04:20;;;;;;;8.10;2.22;;;9.60;99.90;;;;;;5073140;28;20032;-67
2023/01/06 12:06:47;;;;;;;12.45;3.40;;;9.60;99.90;;;;;;5041404;28;20053;-67
2023/01/06 12:09:30;;;;;;;9.27;2.20;;;9.60;99.90;;;;;;5054873;28;20082;-67
2023/01/06 12:12:01;;;;;;;15.55;2.78;;;9.60;99.90;;;;;;5073005;28;20037;-69
2023/01/06 12:14:29;;;;;;;9.82;2.60;;;9.60;99.90;;;;;;5070671;28;20451;-67
2023/01/06 12:17:17;;;;;;;11.00;2.50;;;9.60;99.90;;;;;;5054754;28;20040;-67
2023/01/06 12:20:01;;;;;;;11.05;2.80;;;9.50;99.90;;;;;;5048104;28;20032;-68
2023/01/06 12:22:51;;;;;;;9.63;1.98;;;9.50;99.90;;;;;;5069031;28;20048;-67
2023/01/06 12:25:28;;;;;;;9.98;2.30;;;9.50;99.90;;;;;;5072271;28;20037;-67
2023/01/06 12:28:16;;;;;;;12.27;2.47;;;9.40;99.90;;;;;;5073051;28;20090;-67
2023/01/06 12:30:53;;;;;;;13.10;2.20;;;9.40;99.90;;;;;;5058755;28;20040;-67
2023/01/06 12:33:29;;;;;;;11.20;2.55;;;9.40;99.90;;;;;;5052563;28;20101;-67
2023/01/06 12:36:01;;;;;;;11.95;2.40;;;9.30;99.90;;;;;;5071932;28;20474;-67
2023/01/06 12:38:51;;;;;;;10.05;2.95;;;9.30;99.90;;;;;;5066648;28;20052;-67
2023/01/06 12:41:28;;;;;;;12.27;3.03;;;9.30;99.90;;;;;;5051883;28;20685;-67
2023/01/06 12:44:17;;;;;;;11.18;3.17;;;9.40;99.90;;;;;;5069257;28;20051;-68
2023/01/06 12:47:27;;;;;;;11.57;2.80;;;9.40;99.90;;;;;;5044155;28;20497;-68
2023/01/06 12:50:01;;;;;;;12.32;3.72;;;9.40;99.90;;;;;;5055442;28;20097;-68
2023/01/06 12:52:40;;;;;;;8.70;2.30;;;9.40;99.90;;;;;;5034249;28;20285;-67
2023/01/06 12:55:15;;;;;;;12.82;2.75;;;9.40;99.90;;;;;;5069614;28;20072;-68
2023/01/06 12:57:45;;;;;;;12.13;3.38;;;9.40;99.90;;;;;;5067847;28;20481;-67
2023/01/06 13:00:14;;;;;;;12.43;3.45;;;9.40;99.90;;;;;;5063627;28;20045;-68
2023/01/06 13:02:55;;;;;;;11.70;3.28;;;9.40;99.90;;;;;;5067953;28;20051;-68
2023/01/06 13:05:29;;;;;;;10.52;2.60;;;9.40;99.90;;;;;;5045769;28;20071;-68
2023/01/06 13:08:12;;;;;;;9.05;2.40;;;9.30;99.90;;;;;;5049704;28;20084;-68
2023/01/06 13:10:51;;;;;;;12.60;3.17;;;9.20;99.90;;;;;;5065515;28;20059;-68